Terminal Aerodrome Forecast
Issued by NWS Lake Charles, LA

Home | Current Version | Previous Version | Text Only | Print | Product List | Glossary On
Versions: 1 2 3 4 5 6 7 8 9 10 11 12 13 14 15 16
000
FTUS44 KLCH 251700 RRA
TAFLCH
TAF
KLCH 251741Z 2518/2618 23007KT P6SM VCSH SCT030
     FM260100 VRB03KT P6SM SKC
     FM260400 00000KT 4SM BR SKC
      TEMPO 2608/2612 2SM BR
     FM261400 24006KT P6SM SCT025=

USA.gov is the U.S. government's official web portal to all federal, state and local government web resources and services.